Time;durP1;ratioP1;P1;durP2;ratioP2;P2;SDS_P1;SDS_P2;PMS_P1;PMS_P2;Temp;Humidity;BMP_temperature;BMP_pressure;BME280_temperature;BME280_humidity;BME280_pressure;Samples;Min_cycle;Max_cycle;Signal;HPM_P1;HPM_P2
2024/01/22 00:00:27;;;;;;;10.63;5.88;;;9.30;99.90;;;;;;5117311;23;20056;-87
2024/01/22 00:02:53;;;;;;;10.30;5.18;;;8.40;99.90;;;;;;5070373;28;20131;-87
2024/01/22 00:05:18;;;;;;;10.63;5.20;;;8.30;99.90;;;;;;5071498;28;20020;-88
2024/01/22 00:07:44;;;;;;;10.48;5.47;;;8.40;99.90;;;;;;5061571;28;20075;-88
2024/01/22 00:10:09;;;;;;;8.52;5.93;;;8.40;99.90;;;;;;5070294;28;20045;-88
2024/01/22 00:12:36;;;;;;;10.70;4.72;;;8.40;99.90;;;;;;5068053;28;20082;-87
2024/01/22 00:15:02;;;;;;;9.73;5.38;;;8.50;99.90;;;;;;5062120;28;20032;-88
2024/01/22 00:17:28;;;;;;;6.28;4.57;;;8.50;99.90;;;;;;5070109;28;20548;-87
2024/01/22 00:19:54;;;;;;;10.52;4.50;;;8.50;99.90;;;;;;5068159;28;20029;-88
2024/01/22 00:22:28;;;;;;;7.22;4.95;;;9.30;99.90;;;;;;5068040;28;20315;-87
2024/01/22 00:24:54;;;;;;;10.68;5.55;;;9.30;99.90;;;;;;5064666;28;20036;-86
2024/01/22 00:27:19;;;;;;;6.53;4.43;;;8.60;99.90;;;;;;5069142;28;20025;-89
2024/01/22 00:29:54;;;;;;;5.43;3.92;;;8.60;99.90;;;;;;5065508;28;20055;-88
2024/01/22 00:32:20;;;;;;;5.43;4.00;;;8.60;99.90;;;;;;5070520;28;20043;-87
2024/01/22 00:34:45;;;;;;;9.75;4.70;;;9.10;99.90;;;;;;5064988;28;20539;-88
2024/01/22 00:37:11;;;;;;;9.85;4.78;;;9.70;99.90;;;;;;5069860;28;20033;-88
2024/01/22 00:39:37;;;;;;;10.70;4.63;;;9.50;99.90;;;;;;5069059;28;20086;-88
2024/01/22 00:42:14;;;;;;;7.72;4.38;;;9.70;99.90;;;;;;5069106;28;20420;-88
2024/01/22 00:44:40;;;;;;;8.85;4.35;;;9.10;99.90;;;;;;5062628;28;20060;-89
2024/01/22 00:47:06;;;;;;;7.55;4.10;;;8.90;99.90;;;;;;5069022;28;20472;-88
2024/01/22 00:49:31;;;;;;;9.15;3.85;;;8.90;99.90;;;;;;5068667;28;20108;-88
2024/01/22 00:54:55;;;;;;;10.32;4.20;;;9.00;99.90;;;;;;5066867;27;20399;-87
2024/01/22 00:57:21;;;;;;;13.23;4.35;;;9.60;99.90;;;;;;5063047;28;20087;-87
2024/01/22 00:59:59;;;;;;;9.40;4.10;;;9.00;99.90;;;;;;5065848;28;20025;-88
2024/01/22 01:02:25;;;;;;;11.43;4.13;;;9.80;99.90;;;;;;5066842;28;20075;-88
2024/01/22 01:04:50;;;;;;;7.15;3.42;;;9.10;99.90;;;;;;5066502;28;20070;-88
2024/01/22 01:07:25;;;;;;;4.20;3.58;;;9.80;99.90;;;;;;5066503;28;20024;-89
2024/01/22 01:09:51;;;;;;;7.88;3.72;;;10.00;99.90;;;;;;5065566;28;20036;-88
2024/01/22 01:12:17;;;;;;;6.22;3.58;;;10.20;99.90;;;;;;5067218;28;20090;-87
2024/01/22 01:14:46;;;;;;;11.75;3.50;;;9.20;99.90;;;;;;5065904;28;20037;-87
2024/01/22 01:17:11;;;;;;;9.10;3.33;;;10.00;99.90;;;;;;5065833;28;20495;-91
2024/01/22 01:19:39;;;;;;;6.80;3.50;;;10.10;99.90;;;;;;5063452;28;20040;-89
2024/01/22 01:22:05;;;;;;;6.38;2.92;;;9.70;99.90;;;;;;5066606;28;20436;-87
2024/01/22 01:24:30;;;;;;;5.55;3.35;;;10.50;99.90;;;;;;5066634;28;20483;-88
2024/01/22 01:26:56;;;;;;;6.80;3.67;;;10.20;99.90;;;;;;5066084;28;20495;-89
2024/01/22 01:29:21;;;;;;;8.35;2.90;;;9.40;99.90;;;;;;5066035;28;20033;-87
2024/01/22 01:31:50;;;;;;;5.93;2.85;;;9.90;99.90;;;;;;5066591;28;20172;-89
2024/01/22 01:34:15;;;;;;;4.93;2.28;;;10.50;99.90;;;;;;5066605;28;20040;-88
2024/01/22 01:36:41;;;;;;;5.05;2.33;;;9.70;99.90;;;;;;5066612;28;20021;-89
2024/01/22 01:39:07;;;;;;;3.58;2.22;;;9.60;99.90;;;;;;5065102;28;20033;-89
2024/01/22 01:41:32;;;;;;;3.70;2.53;;;10.40;99.90;;;;;;5065443;28;20029;-89
2024/01/22 01:44:13;;;;;;;7.70;2.13;;;10.20;99.90;;;;;;5067143;28;20028;-88
2024/01/22 01:46:38;;;;;;;6.80;2.42;;;10.10;99.90;;;;;;5061864;28;20028;-89
2024/01/22 01:49:04;;;;;;;4.13;2.17;;;9.90;99.90;;;;;;5068014;28;20357;-89
2024/01/22 01:51:30;;;;;;;3.83;1.98;;;11.10;99.90;;;;;;5065971;28;20032;-89
2024/01/22 01:54:14;;;;;;;4.07;2.25;;;10.20;99.90;;;;;;5065865;28;20462;-89
2024/01/22 01:56:40;;;;;;;6.45;2.25;;;11.10;99.90;;;;;;5062874;28;20024;-89
2024/01/22 01:59:06;;;;;;;3.08;2.53;;;11.30;99.90;;;;;;5065812;28;20491;-89
2024/01/22 02:01:31;;;;;;;2.95;1.90;;;10.20;99.90;;;;;;5064115;28;20169;-88
2024/01/22 02:04:15;;;;;;;3.40;1.95;;;11.10;99.90;;;;;;5061020;28;20384;-89
2024/01/22 02:06:41;;;;;;;2.85;1.85;;;10.30;99.90;;;;;;5048823;28;20025;-89
2024/01/22 02:09:07;;;;;;;3.15;1.83;;;10.20;99.90;;;;;;5052057;28;20037;-88
2024/01/22 02:11:47;;;;;;;3.28;1.73;;;11.10;99.90;;;;;;5051008;28;20063;-87
2024/01/22 02:14:13;;;;;;;7.13;2.50;;;10.90;99.90;;;;;;5051043;28;20033;-87
2024/01/22 02:16:45;;;;;;;3.53;1.80;;;10.80;99.90;;;;;;5051850;28;20021;-88
2024/01/22 02:19:10;;;;;;;7.53;2.47;;;10.10;99.90;;;;;;5051237;28;20034;-87
2024/01/22 02:21:36;;;;;;;3.60;1.90;;;10.80;99.90;;;;;;5050334;28;20051;-87
2024/01/22 02:24:01;;;;;;;7.65;2.22;;;10.90;99.90;;;;;;5052388;28;20472;-88
2024/01/22 02:26:34;;;;;;;7.32;2.08;;;10.20;99.90;;;;;;5051879;28;20048;-88
2024/01/22 02:29:00;;;;;;;1.83;1.60;;;10.80;99.90;;;;;;5049790;28;20382;-88
2024/01/22 02:31:25;;;;;;;3.08;1.70;;;10.70;99.90;;;;;;5058674;28;20142;-88
2024/01/22 02:33:51;;;;;;;4.80;2.22;;;10.10;99.90;;;;;;5064224;28;20040;-87
2024/01/22 02:36:38;;;;;;;6.00;2.05;;;10.50;99.90;;;;;;5061909;28;20461;-88
2024/01/22 02:39:04;;;;;;;5.60;2.22;;;9.30;99.90;;;;;;5062472;28;20361;-87
2024/01/22 02:41:30;;;;;;;4.15;1.55;;;10.40;99.90;;;;;;5057624;28;20040;-88
2024/01/22 02:43:55;;;;;;;1.77;1.45;;;10.90;99.90;;;;;;5047388;28;20036;-86
2024/01/22 02:46:21;;;;;;;1.70;1.40;;;11.70;99.90;;;;;;5049066;28;20099;-88
2024/01/22 02:48:46;;;;;;;2.25;1.45;;;11.00;99.90;;;;;;5050390;28;20027;-87
2024/01/22 02:51:12;;;;;;;3.60;1.13;;;11.20;99.90;;;;;;5051067;28;20075;-88
2024/01/22 02:53:38;;;;;;;3.35;1.73;;;10.20;99.90;;;;;;5050595;28;20049;-89
2024/01/22 02:56:23;;;;;;;3.15;1.13;;;11.10;99.90;;;;;;5052028;28;20480;-88
2024/01/22 02:58:49;;;;;;;2.20;1.60;;;11.10;99.90;;;;;;5051365;28;20033;-88
2024/01/22 03:01:15;;;;;;;2.53;1.15;;;11.00;99.90;;;;;;5051941;28;20032;-88
2024/01/22 03:03:40;;;;;;;3.13;1.67;;;10.40;99.90;;;;;;5050915;28;20060;-87
2024/01/22 03:06:07;;;;;;;4.20;1.38;;;10.60;99.90;;;;;;5048641;28;20039;-88
2024/01/22 03:08:32;;;;;;;1.42;1.30;;;10.40;99.90;;;;;;5051856;28;20481;-88
2024/01/22 03:10:58;;;;;;;4.03;1.27;;;11.10;99.90;;;;;;5050662;28;20087;-88
2024/01/22 03:13:41;;;;;;;1.55;1.30;;;11.50;99.90;;;;;;5050757;28;20337;-88
2024/01/22 03:16:07;;;;;;;2.10;1.50;;;11.20;99.90;;;;;;5042115;28;20536;-88
2024/01/22 03:18:33;;;;;;;2.25;1.33;;;11.50;99.90;;;;;;5049295;28;20030;-88
2024/01/22 03:21:01;;;;;;;2.63;1.30;;;11.10;99.90;;;;;;5052172;28;20025;-88
2024/01/22 03:23:26;;;;;;;2.10;1.90;;;11.50;99.90;;;;;;5060382;28;20529;-88
2024/01/22 03:25:52;;;;;;;1.65;0.88;;;10.40;99.90;;;;;;5057028;28;20053;-88
2024/01/22 03:28:17;;;;;;;3.90;1.30;;;10.90;99.90;;;;;;5045925;28;20037;-88
2024/01/22 03:30:43;;;;;;;1.55;1.45;;;11.30;99.90;;;;;;5051255;28;20017;-88
2024/01/22 03:33:08;;;;;;;2.33;1.02;;;10.60;99.90;;;;;;5053962;28;20037;-86
2024/01/22 03:35:34;;;;;;;1.25;1.15;;;11.90;99.90;;;;;;5054911;28;20469;-87
2024/01/22 03:37:59;;;;;;;1.67;1.10;;;11.60;99.90;;;;;;5054074;28;20338;-87
2024/01/22 03:40:25;;;;;;;1.38;1.27;;;10.60;99.90;;;;;;5046444;28;20040;-86
2024/01/22 03:42:51;;;;;;;3.17;1.40;;;11.40;99.90;;;;;;5051521;28;20025;-86
2024/01/22 03:45:35;;;;;;;3.47;1.35;;;12.20;99.90;;;;;;5049264;28;20469;-86
2024/01/22 03:48:00;;;;;;;1.73;1.15;;;10.60;99.90;;;;;;5045789;28;20033;-87
2024/01/22 03:50:26;;;;;;;1.05;1.00;;;11.50;99.90;;;;;;5047696;28;20029;-85
2024/01/22 03:52:57;;;;;;;1.73;1.00;;;10.60;99.90;;;;;;5048830;28;20531;-87
2024/01/22 03:55:23;;;;;;;2.72;1.33;;;10.60;99.90;;;;;;5050666;28;20036;-86
2024/01/22 03:57:49;;;;;;;1.20;1.10;;;10.80;99.90;;;;;;5049530;28;20029;-87
2024/01/22 04:00:14;;;;;;;5.10;0.95;;;11.60;99.90;;;;;;5049832;28;20480;-85
2024/01/22 04:02:40;;;;;;;1.50;1.15;;;10.70;99.90;;;;;;5048385;28;20055;-86
2024/01/22 04:05:07;;;;;;;3.00;0.88;;;11.10;99.90;;;;;;5050445;28;20040;-87
2024/01/22 04:07:51;;;;;;;1.23;1.10;;;10.80;99.90;;;;;;5049108;28;20033;-87
2024/01/22 04:10:17;;;;;;;1.38;1.08;;;11.50;99.90;;;;;;5045457;28;20121;-87
2024/01/22 04:12:42;;;;;;;2.55;0.90;;;10.80;99.90;;;;;;5048636;28;20112;-86
2024/01/22 04:15:08;;;;;;;4.10;0.82;;;10.80;99.90;;;;;;5050973;28;20025;-86
2024/01/22 04:17:34;;;;;;;2.42;0.90;;;10.80;99.90;;;;;;5047995;28;20476;-85
2024/01/22 04:20:00;;;;;;;1.02;0.80;;;10.80;99.90;;;;;;5047994;28;20481;-87
2024/01/22 04:22:43;;;;;;;1.45;0.77;;;10.90;99.90;;;;;;5043588;28;20025;-86
2024/01/22 04:25:09;;;;;;;3.72;1.10;;;10.80;99.90;;;;;;5049628;28;20029;-86
2024/01/22 04:27:35;;;;;;;3.15;0.98;;;11.90;99.90;;;;;;5048863;28;20044;-87
2024/01/22 04:30:01;;;;;;;5.47;1.08;;;11.60;99.90;;;;;;5047230;28;20025;-86
2024/01/22 04:32:26;;;;;;;1.35;0.77;;;11.60;99.90;;;;;;5041807;28;20392;-87
2024/01/22 04:34:52;;;;;;;1.48;0.80;;;11.90;99.90;;;;;;5045393;28;20044;-87
2024/01/22 04:37:18;;;;;;;2.20;0.98;;;11.90;99.90;;;;;;5048712;28;20549;-86
2024/01/22 04:39:43;;;;;;;1.15;0.85;;;11.80;99.90;;;;;;5049144;28;20052;-87
2024/01/22 04:42:09;;;;;;;1.40;0.82;;;11.70;99.90;;;;;;5048406;28;20048;-86
2024/01/22 04:44:55;;;;;;;1.50;0.80;;;11.60;99.90;;;;;;5048299;28;20032;-86
2024/01/22 04:47:21;;;;;;;3.10;1.00;;;10.60;99.90;;;;;;5048769;28;20041;-87
2024/01/22 04:49:46;;;;;;;1.77;0.93;;;12.20;99.90;;;;;;5050498;28;20499;-87
2024/01/22 04:52:12;;;;;;;4.30;1.08;;;10.70;99.90;;;;;;5051221;28;20028;-88
2024/01/22 04:54:56;;;;;;;2.25;0.80;;;10.70;99.90;;;;;;5050632;28;20048;-89
2024/01/22 04:57:21;;;;;;;6.05;1.05;;;10.60;99.90;;;;;;5052795;28;20053;-86
2024/01/22 05:00:06;;;;;;;2.47;0.82;;;11.50;99.90;;;;;;5050122;28;20118;-88
2024/01/22 05:02:32;;;;;;;2.72;1.20;;;10.50;99.90;;;;;;5045710;28;20025;-88
2024/01/22 05:05:01;;;;;;;6.72;1.05;;;11.20;99.90;;;;;;5050342;28;20112;-89
2024/01/22 05:07:32;;;;;;;2.65;1.38;;;11.70;99.90;;;;;;5050202;28;20507;-89
2024/01/22 05:10:04;;;;;;;1.00;0.75;;;11.70;99.90;;;;;;5048011;28;20111;-89
2024/01/22 05:12:50;;;;;;;1.92;0.93;;;10.50;99.90;;;;;;5049723;28;20029;-87
2024/01/22 05:15:15;;;;;;;2.88;1.30;;;10.50;99.90;;;;;;5045640;28;20051;-89
2024/01/22 05:17:41;;;;;;;3.80;1.20;;;10.40;99.90;;;;;;5038764;28;20100;-87
2024/01/22 05:20:26;;;;;;;3.72;1.10;;;11.30;99.90;;;;;;5048926;28;20040;-89
2024/01/22 05:22:51;;;;;;;5.97;2.13;;;11.50;99.90;;;;;;5048780;28;20485;-88
2024/01/22 05:25:19;;;;;;;2.50;0.90;;;11.30;99.90;;;;;;5049274;28;20039;-88
2024/01/22 05:27:47;;;;;;;1.42;0.90;;;10.40;99.90;;;;;;5049033;28;20120;-87
2024/01/22 05:30:13;;;;;;;4.85;1.00;;;11.60;99.90;;;;;;5048543;28;20059;-88
2024/01/22 05:32:54;;;;;;;4.63;1.42;;;10.70;99.90;;;;;;5046834;28;20036;-88
2024/01/22 05:35:19;;;;;;;2.60;1.30;;;11.80;99.90;;;;;;5044598;28;20040;-88
2024/01/22 05:37:48;;;;;;;3.65;1.10;;;11.70;99.90;;;;;;5049239;28;20033;-87
2024/01/22 05:40:14;;;;;;;2.35;1.20;;;11.60;99.90;;;;;;5050596;28;20029;-87
2024/01/22 05:42:40;;;;;;;1.02;0.80;;;10.90;99.90;;;;;;5049046;28;20036;-88
2024/01/22 05:45:11;;;;;;;5.45;1.63;;;11.80;99.90;;;;;;5052726;28;20059;-87
2024/01/22 05:47:37;;;;;;;2.42;1.00;;;10.90;99.90;;;;;;5060809;28;20029;-89
2024/01/22 05:50:03;;;;;;;4.38;1.45;;;10.90;99.90;;;;;;5063306;28;20025;-88
2024/01/22 05:52:40;;;;;;;8.27;2.47;;;11.00;99.90;;;;;;5055492;28;20484;-88
2024/01/22 05:55:06;;;;;;;6.93;1.95;;;12.00;99.90;;;;;;5058274;28;20059;-87
2024/01/22 05:57:32;;;;;;;4.32;1.75;;;11.00;99.90;;;;;;5052107;28;20048;-88
2024/01/22 05:59:58;;;;;;;7.03;1.30;;;11.80;99.90;;;;;;5052176;28;20065;-87
2024/01/22 06:02:23;;;;;;;8.52;1.85;;;10.90;99.90;;;;;;5050918;28;20032;-88
2024/01/22 06:04:49;;;;;;;4.28;1.52;;;10.90;99.90;;;;;;5052680;28;20037;-89
2024/01/22 06:07:15;;;;;;;4.70;2.33;;;11.90;99.90;;;;;;5052313;28;20029;-87
2024/01/22 06:09:43;;;;;;;5.25;1.35;;;11.80;99.90;;;;;;5051319;28;20114;-90
2024/01/22 06:12:27;;;;;;;6.72;1.65;;;10.90;99.90;;;;;;5052757;28;20031;-88
2024/01/22 06:14:52;;;;;;;3.28;1.40;;;11.90;99.90;;;;;;5052325;28;20416;-88
2024/01/22 06:17:18;;;;;;;10.77;1.90;;;11.50;99.90;;;;;;5050692;28;20029;-89
2024/01/22 06:19:44;;;;;;;4.97;1.65;;;10.90;99.90;;;;;;5045031;28;20037;-88
2024/01/22 06:22:28;;;;;;;5.28;1.83;;;11.70;99.90;;;;;;5054019;28;20520;-89
2024/01/22 06:24:53;;;;;;;6.07;1.85;;;11.40;99.90;;;;;;5052872;28;20531;-88
2024/01/22 06:27:19;;;;;;;5.20;1.60;;;11.80;99.90;;;;;;5053426;28;20287;-88
2024/01/22 06:30:03;;;;;;;8.60;1.45;;;11.60;99.90;;;;;;5054228;28;20043;-89
2024/01/22 06:32:29;;;;;;;7.10;1.90;;;10.90;99.90;;;;;;5052176;28;20040;-89
2024/01/22 06:34:55;;;;;;;9.63;2.67;;;11.60;99.90;;;;;;5051246;28;20033;-89
2024/01/22 06:37:39;;;;;;;11.93;1.65;;;11.60;99.90;;;;;;5052344;28;20550;-89
2024/01/22 06:40:06;;;;;;;6.88;1.48;;;11.80;99.90;;;;;;5049163;28;20088;-88
2024/01/22 06:42:32;;;;;;;6.95;1.75;;;10.90;99.90;;;;;;5053652;28;20028;-89
2024/01/22 06:45:19;;;;;;;6.57;2.10;;;10.90;99.90;;;;;;5052464;28;20036;-89
2024/01/22 06:47:45;;;;;;;7.45;2.75;;;10.90;99.90;;;;;;5052079;28;20484;-90
2024/01/22 06:50:10;;;;;;;8.80;1.73;;;11.70;99.90;;;;;;5051402;28;20033;-90
2024/01/22 06:52:36;;;;;;;11.48;2.95;;;11.30;99.90;;;;;;5051577;28;20076;-89
2024/01/22 06:55:27;;;;;;;10.10;3.00;;;12.00;99.90;;;;;;5049231;28;20041;-90
2024/01/22 06:57:52;;;;;;;10.60;2.13;;;11.10;99.90;;;;;;5052719;28;20296;-89
2024/01/22 07:00:19;;;;;;;13.30;3.35;;;11.80;99.90;;;;;;5050507;28;20036;-89
2024/01/22 07:03:04;;;;;;;11.68;2.45;;;11.10;99.90;;;;;;5052127;28;20028;-89
2024/01/22 07:05:29;;;;;;;13.05;3.30;;;11.00;99.90;;;;;;5046242;28;20029;-90
2024/01/22 07:08:13;;;;;;;15.30;2.55;;;10.90;99.90;;;;;;5052703;28;20029;-91
2024/01/22 07:11:00;;;;;;;15.52;2.63;;;11.00;99.90;;;;;;5051677;28;20021;-89
2024/01/22 07:13:44;;;;;;;15.32;3.33;;;11.80;99.90;;;;;;5047695;28;20037;-89
2024/01/22 07:16:12;;;;;;;18.00;3.42;;;12.20;99.90;;;;;;5051815;28;20036;-87
2024/01/22 07:18:38;;;;;;;18.50;3.88;;;11.90;99.90;;;;;;5050919;28;20473;-88
2024/01/22 07:21:04;;;;;;;22.88;3.75;;;12.00;99.90;;;;;;5061835;28;20041;-87
2024/01/22 07:23:50;;;;;;;16.67;3.95;;;11.20;99.90;;;;;;5056212;28;20171;-88
2024/01/22 07:26:18;;;;;;;34.42;4.72;;;10.10;99.90;;;;;;5051542;28;20029;-87
2024/01/22 07:28:44;;;;;;;35.67;4.07;;;11.90;99.90;;;;;;5060433;28;20032;-89
2024/01/22 07:31:09;;;;;;;25.52;4.95;;;11.20;99.90;;;;;;5058623;28;20032;-89
2024/01/22 07:33:54;;;;;;;23.45;4.45;;;12.10;99.90;;;;;;5058439;28;20056;-88
2024/01/22 07:36:20;;;;;;;25.88;5.25;;;11.20;99.90;;;;;;5053585;28;20087;-88
2024/01/22 07:38:47;;;;;;;29.83;4.93;;;12.00;99.90;;;;;;5041465;28;20029;-87
2024/01/22 07:41:31;;;;;;;30.08;4.80;;;11.90;99.90;;;;;;5050310;28;20041;-85
2024/01/22 07:43:56;;;;;;;27.88;4.57;;;11.20;99.90;;;;;;5048739;28;20059;-86
2024/01/22 07:46:22;;;;;;;21.80;5.88;;;12.20;99.90;;;;;;5051381;28;20520;-87
2024/01/22 07:48:47;;;;;;;25.40;4.45;;;11.90;99.90;;;;;;5052549;28;20028;-86
2024/01/22 07:51:35;;;;;;;23.40;4.57;;;12.10;99.90;;;;;;5044956;28;20040;-89
2024/01/22 07:54:01;;;;;;;25.10;5.28;;;11.00;99.90;;;;;;5053188;28;20060;-88
2024/01/22 07:56:28;;;;;;;34.75;5.40;;;11.40;99.90;;;;;;5053195;28;20019;-86
2024/01/22 07:59:11;;;;;;;30.80;5.35;;;11.00;99.90;;;;;;5051133;28;20044;-89
2024/01/22 08:01:37;;;;;;;27.52;5.50;;;11.70;99.90;;;;;;5052999;28;20024;-85
2024/01/22 08:04:03;;;;;;;25.73;4.55;;;11.80;99.90;;;;;;5051847;28;20404;-88
2024/01/22 08:06:47;;;;;;;31.90;5.38;;;10.80;99.90;;;;;;5050932;28;20055;-89
2024/01/22 08:09:13;;;;;;;38.75;6.32;;;10.70;99.90;;;;;;5046998;28;20090;-85
2024/01/22 08:11:39;;;;;;;37.97;5.53;;;11.60;99.90;;;;;;5050633;28;20079;-92
2024/01/22 08:14:05;;;;;;;31.65;6.95;;;11.60;99.90;;;;;;5054001;28;20055;-89
2024/01/22 08:16:30;;;;;;;39.45;6.72;;;10.80;99.90;;;;;;5052300;28;20108;-88
2024/01/22 08:19:14;;;;;;;42.33;7.10;;;10.70;99.90;;;;;;5041642;28;20028;-85
2024/01/22 08:21:43;;;;;;;37.42;6.72;;;10.40;99.90;;;;;;5031428;28;20021;-85
2024/01/22 08:24:08;;;;;;;47.40;7.60;;;10.80;99.90;;;;;;5041428;28;20036;-90
2024/01/22 08:26:34;;;;;;;40.67;7.80;;;12.00;99.90;;;;;;5050455;28;20024;-85
2024/01/22 08:29:00;;;;;;;38.58;7.43;;;10.90;99.90;;;;;;5042646;28;20049;-85
2024/01/22 08:31:44;;;;;;;57.10;8.38;;;10.90;99.90;;;;;;5033078;28;20115;-85
2024/01/22 08:34:09;;;;;;;25.67;5.95;;;11.20;99.90;;;;;;5029219;28;20048;-85
2024/01/22 08:36:35;;;;;;;34.95;7.38;;;11.10;99.90;;;;;;5030002;28;20017;-85
2024/01/22 08:39:00;;;;;;;27.95;5.90;;;10.80;99.90;;;;;;5033368;28;20524;-86
2024/01/22 08:41:29;;;;;;;41.05;7.40;;;11.40;99.90;;;;;;5043467;28;20032;-85
2024/01/22 08:44:16;;;;;;;35.38;6.30;;;11.40;99.90;;;;;;5049215;28;20481;-85
2024/01/22 08:46:41;;;;;;;43.15;7.88;;;9.90;99.90;;;;;;5046012;28;20033;-84
2024/01/22 08:49:07;;;;;;;54.65;8.75;;;11.20;99.90;;;;;;5047803;28;20048;-84
2024/01/22 08:51:39;;;;;;;58.10;10.45;;;10.40;99.90;;;;;;5049526;28;20507;-84
2024/01/22 08:54:05;;;;;;;53.35;10.20;;;11.70;99.90;;;;;;5049824;28;20075;-84
2024/01/22 08:56:30;;;;;;;55.42;8.32;;;11.40;99.90;;;;;;5044738;28;20014;-84
2024/01/22 08:58:57;;;;;;;52.20;9.82;;;10.70;99.90;;;;;;5030545;28;20030;-85
2024/01/22 09:01:23;;;;;;;44.80;10.13;;;10.60;99.90;;;;;;5043881;28;20423;-84
2024/01/22 09:03:48;;;;;;;49.90;8.25;;;10.30;99.90;;;;;;5051262;28;20021;-85
2024/01/22 09:06:14;;;;;;;52.30;8.45;;;10.30;99.90;;;;;;5051848;28;20132;-84
2024/01/22 09:08:43;;;;;;;38.75;7.43;;;10.20;99.90;;;;;;5049462;28;20017;-85
2024/01/22 09:11:09;;;;;;;40.10;7.05;;;10.20;99.90;;;;;;5049926;28;20028;-85
2024/01/22 09:13:36;;;;;;;37.08;7.60;;;10.10;99.90;;;;;;5050192;28;20047;-85
2024/01/22 09:16:02;;;;;;;46.58;8.43;;;10.00;99.90;;;;;;5052401;28;20430;-85
2024/01/22 09:18:28;;;;;;;47.30;8.85;;;10.00;99.90;;;;;;5053390;28;20045;-82
2024/01/22 09:20:54;;;;;;;45.38;7.40;;;10.90;99.90;;;;;;5054352;28;20029;-88
2024/01/22 09:23:22;;;;;;;49.05;8.10;;;9.90;99.90;;;;;;5054921;28;20092;-89
2024/01/22 09:25:48;;;;;;;43.90;7.03;;;9.80;99.90;;;;;;5053463;28;20029;-87
2024/01/22 09:28:14;;;;;;;31.17;5.65;;;9.80;99.90;;;;;;5055387;28;20107;-85
2024/01/22 09:30:41;;;;;;;32.33;6.82;;;9.80;99.90;;;;;;5052686;28;20029;-88
2024/01/22 09:33:06;;;;;;;32.17;5.82;;;9.70;99.90;;;;;;5054871;28;20063;-86
2024/01/22 09:35:32;;;;;;;54.72;7.47;;;9.70;99.90;;;;;;5054857;28;20424;-87
2024/01/22 09:37:58;;;;;;;43.53;7.13;;;9.60;99.90;;;;;;5053969;28;20029;-86
2024/01/22 09:40:30;;;;;;;35.40;6.00;;;9.50;99.90;;;;;;5053394;28;20499;-87
2024/01/22 09:42:58;;;;;;;33.42;5.20;;;9.50;99.90;;;;;;5034328;28;20053;-88
2024/01/22 09:45:24;;;;;;;33.00;6.47;;;9.50;99.90;;;;;;5035008;28;20103;-86
2024/01/22 09:47:50;;;;;;;30.67;6.60;;;9.40;99.90;;;;;;5035020;28;20029;-85
2024/01/22 09:50:16;;;;;;;48.03;7.13;;;9.50;99.90;;;;;;5034784;28;20491;-88
2024/01/22 09:52:46;;;;;;;39.00;6.22;;;10.30;99.90;;;;;;5034241;28;20113;-89
2024/01/22 09:55:13;;;;;;;;;;;10.20;99.90;;;;;;5034205;28;20520;-87
2024/01/22 09:57:43;;;;;;;42.55;6.35;;;9.90;99.90;;;;;;5032731;28;19906;-86
2024/01/22 10:00:12;;;;;;;37.72;7.00;;;9.30;99.90;;;;;;5047994;28;20033;-88
2024/01/22 10:02:40;;;;;;;36.28;7.88;;;9.30;99.90;;;;;;5051893;28;20029;-88
2024/01/22 10:05:07;;;;;;;32.05;6.32;;;9.30;99.90;;;;;;5051525;28;20036;-88
2024/01/22 10:07:32;;;;;;;37.95;5.85;;;9.20;99.90;;;;;;5053340;28;20029;-89
2024/01/22 10:09:58;;;;;;;30.17;6.20;;;9.20;99.90;;;;;;5049954;28;20037;-90
2024/01/22 10:12:24;;;;;;;28.92;5.68;;;9.70;99.90;;;;;;5049822;28;20025;-88
2024/01/22 10:14:49;;;;;;;34.92;4.53;;;9.20;99.90;;;;;;5052690;28;20057;-89
2024/01/22 10:17:20;;;;;;;32.10;5.22;;;9.20;99.90;;;;;;5055076;28;20032;-88
2024/01/22 10:19:47;;;;;;;27.30;4.18;;;9.30;99.90;;;;;;5054728;28;20090;-90
2024/01/22 10:22:13;;;;;;;27.33;5.85;;;9.30;99.90;;;;;;5055256;28;20071;-89
2024/01/22 10:24:39;;;;;;;30.40;4.60;;;9.30;99.90;;;;;;5056563;28;20096;-89
2024/01/22 10:27:15;;;;;;;22.35;4.60;;;9.50;99.90;;;;;;5056463;28;20112;-87
2024/01/22 10:29:44;;;;;;;28.73;4.82;;;9.30;99.90;;;;;;5040868;28;20025;-87
2024/01/22 10:32:10;;;;;;;32.60;5.38;;;10.10;99.90;;;;;;5052678;28;20036;-86
2024/01/22 10:34:43;;;;;;;32.75;5.40;;;9.30;99.90;;;;;;5047471;28;20047;-88
2024/01/22 10:37:13;;;;;;;37.47;5.70;;;9.30;99.90;;;;;;5048388;28;20082;-87
2024/01/22 10:39:41;;;;;;;46.65;5.95;;;9.40;99.90;;;;;;5050938;28;20029;-87
2024/01/22 10:42:11;;;;;;;37.70;6.18;;;9.40;99.90;;;;;;5053561;28;20033;-87
2024/01/22 10:44:40;;;;;;;34.20;5.47;;;9.40;99.90;;;;;;5052477;28;20025;-89
2024/01/22 10:47:06;;;;;;;39.38;6.28;;;9.50;99.90;;;;;;5043691;28;20442;-89
2024/01/22 10:49:33;;;;;;;41.05;6.38;;;9.50;99.90;;;;;;5042372;28;20072;-89
2024/01/22 10:51:59;;;;;;;34.53;5.93;;;9.90;99.90;;;;;;5051745;28;20089;-89
2024/01/22 10:54:26;;;;;;;36.38;6.03;;;9.50;99.90;;;;;;5046371;28;20045;-88
2024/01/22 10:57:05;;;;;;;24.45;6.10;;;9.60;99.90;;;;;;5051367;28;20448;-88
2024/01/22 10:59:35;;;;;;;32.50;5.78;;;9.60;99.90;;;;;;5053984;28;20037;-88
2024/01/22 11:02:04;;;;;;;29.95;5.22;;;9.70;99.90;;;;;;5053917;28;20381;-88
2024/01/22 11:04:34;;;;;;;27.77;6.03;;;9.70;99.90;;;;;;5054287;28;20033;-88
2024/01/22 11:07:02;;;;;;;25.73;4.83;;;9.70;99.90;;;;;;5054129;28;20427;-87
2024/01/22 11:09:32;;;;;;;28.35;4.85;;;10.60;99.90;;;;;;5053626;28;20037;-84
2024/01/22 11:12:21;;;;;;;31.38;6.72;;;9.70;99.90;;;;;;5059104;28;20119;-88
2024/01/22 11:14:47;;;;;;;27.65;4.97;;;9.80;99.90;;;;;;5052104;28;20052;-88
2024/01/22 11:17:15;;;;;;;41.72;6.05;;;9.90;99.90;;;;;;5048112;28;20048;-87
2024/01/22 11:19:40;;;;;;;37.15;6.20;;;9.90;99.90;;;;;;5035231;28;20485;-87
2024/01/22 11:22:19;;;;;;;27.58;4.43;;;10.00;99.90;;;;;;5037677;28;20033;-86
2024/01/22 11:25:12;;;;;;;23.08;4.55;;;9.90;99.90;;;;;;5045180;28;20036;-87
2024/01/22 11:27:42;;;;;;;35.45;5.45;;;10.50;99.90;;;;;;5033182;28;20052;-88
2024/01/22 11:30:22;;;;;;;20.15;3.85;;;10.40;99.90;;;;;;5033188;28;20083;-86
2024/01/22 11:32:50;;;;;;;29.98;5.30;;;11.00;99.90;;;;;;5033137;28;20116;-85
2024/01/22 11:35:44;;;;;;;29.30;4.70;;;11.40;99.90;;;;;;5043175;28;20116;-83
2024/01/22 11:38:14;;;;;;;29.27;4.78;;;10.10;99.90;;;;;;5052028;28;20503;-88
2024/01/22 11:40:55;;;;;;;25.95;5.07;;;10.80;99.90;;;;;;5045172;28;20042;-88
2024/01/22 11:43:22;;;;;;;30.73;5.68;;;10.70;99.90;;;;;;5031598;28;20362;-85
2024/01/22 11:45:56;;;;;;;33.50;5.25;;;10.70;99.90;;;;;;5032083;28;20036;-86
2024/01/22 11:48:40;;;;;;;34.00;4.78;;;10.10;99.90;;;;;;5038199;23;20041;-86
2024/01/22 11:51:06;;;;;;;35.58;5.05;;;10.90;99.90;;;;;;5032500;28;20025;-87
2024/01/22 11:53:49;;;;;;;35.13;5.57;;;9.80;99.90;;;;;;5032251;28;20370;-86
2024/01/22 11:56:29;;;;;;;20.52;3.92;;;10.20;99.90;;;;;;5030489;28;20489;-87
2024/01/22 11:59:07;;;;;;;27.50;4.57;;;10.80;99.90;;;;;;5029628;28;20029;-86
2024/01/22 12:01:33;;;;;;;32.20;6.10;;;10.40;99.90;;;;;;5030491;28;20129;-86
2024/01/22 12:04:09;;;;;;;26.20;5.72;;;10.20;99.90;;;;;;5021975;28;20124;-86
2024/01/22 12:06:50;;;;;;;28.63;5.38;;;10.60;99.90;;;;;;5011477;28;20018;-86
2024/01/22 12:09:15;;;;;;;27.73;4.70;;;10.20;99.90;;;;;;5011402;28;20026;-86
2024/01/22 12:11:50;;;;;;;32.58;5.65;;;10.20;99.90;;;;;;5010911;28;20421;-86
2024/01/22 12:14:16;;;;;;;28.70;5.45;;;10.20;99.90;;;;;;5011347;28;20088;-85
2024/01/22 12:16:42;;;;;;;30.33;5.45;;;10.70;99.90;;;;;;5010502;28;20021;-86
2024/01/22 12:19:11;;;;;;;24.42;5.70;;;10.70;99.90;;;;;;5012074;28;20033;-86
2024/01/22 12:21:39;;;;;;;29.33;5.57;;;10.20;99.90;;;;;;5011930;28;20029;-86
2024/01/22 12:24:19;;;;;;;37.83;5.82;;;10.30;99.90;;;;;;5023398;28;20036;-86
2024/01/22 12:26:45;;;;;;;;;;;10.20;99.90;;;;;;5021164;28;20064;-85
2024/01/22 12:29:24;;;;;;;36.40;4.90;;;10.40;99.90;;;;;;5032442;28;19948;-85
2024/01/22 12:32:01;;;;;;;32.28;5.93;;;10.20;99.90;;;;;;5031536;28;20108;-85
2024/01/22 12:34:27;;;;;;;29.48;5.65;;;10.20;99.90;;;;;;5032150;28;20033;-87
2024/01/22 12:36:52;;;;;;;34.80;5.03;;;10.30;99.90;;;;;;5032038;28;20092;-86
2024/01/22 12:39:21;;;;;;;30.95;6.05;;;10.20;99.90;;;;;;5033491;28;20074;-86
2024/01/22 12:41:46;;;;;;;38.85;7.82;;;10.30;99.90;;;;;;5019533;28;20022;-86
2024/01/22 12:44:15;;;;;;;35.97;6.00;;;10.30;99.90;;;;;;5016705;28;20033;-87
2024/01/22 12:46:41;;;;;;;45.08;8.02;;;10.30;99.90;;;;;;5030279;28;20045;-86
2024/01/22 12:49:06;;;;;;;42.25;6.93;;;10.20;99.90;;;;;;5024052;28;20025;-85
2024/01/22 12:51:32;;;;;;;46.25;7.32;;;10.30;99.90;;;;;;5012131;28;20079;-85
2024/01/22 12:53:58;;;;;;;45.90;7.25;;;10.30;99.90;;;;;;5011868;28;20030;-85
2024/01/22 12:56:23;;;;;;;35.63;6.45;;;11.30;99.90;;;;;;5013545;28;20044;-86
2024/01/22 12:58:49;;;;;;;40.63;5.93;;;11.40;99.90;;;;;;5012064;28;20036;-85